| Date | Time | Temp. (oF) | Dew Point (oF) | Rel. Hum. (%) | Press. (in.) | Wind Dir. | Wind Speed (mph) | Hourly Rainfall (in.) |
|
|---|---|---|---|---|---|---|---|---|---|
| 1 | 09/22 | 00:00 | 66 | 63 | 92 | 30.26 | ENE | 0 | 0.00 |
| 2 | miss | miss | miss | miss | miss | miss | miss | miss | |
| 3 | 09/21 | Min | 60 | 46 | 62 | 30.23 | 300 | 0 | 0.00 |
| 4 | miss | miss | miss | miss | miss | miss | miss | miss | |
| 5 | 09/21 | Min | 60 | 46 | 62 | 30.23 | 300 | 0 | 0.00 |
| 6 | miss | miss | miss | miss | miss | miss | miss | miss | |
| 7 | 09/21 | 23:16 | 67 | 63 | 89 | 30.26 | ENE | 0 | 0.00 |
| 8 | miss | miss | miss | miss | miss | miss | miss | miss | |
| 9 | 09/21 | 23:14 | 67 | 63 | 89 | 30.26 | ENE | 0 | 0.00 |
| 10 | miss | miss | miss | miss | miss | miss | miss | miss | |
| 11 | 09/21 | 23:12 | 67 | 63 | 89 | 30.27 | ENE | 0 | 0.00 |
| 12 | miss | miss | miss | miss | miss | miss | miss | miss | |
| 13 | 09/21 | 23:10 | 67 | 63 | 89 | 30.27 | ENE | 0 | 0.00 |
| 14 | miss | miss | miss | miss | miss | miss | miss | miss | |
| 15 | 09/21 | 23:08 | 67 | 63 | 89 | 30.27 | ENE | 0 | 0.00 |
| 16 | miss | miss | miss | miss | miss | miss | miss | miss | |
| 17 | 09/21 | 23:06 | 67 | 63 | 89 | 30.27 | ENE | 0 | 0.00 |
| 18 | miss | miss | miss | miss | miss | miss | miss | miss | |
| 19 | 09/21 | 23:04 | 67 | 63 | 89 | 30.27 | ENE | 0 | 0.00 |
| 20 | miss | miss | miss | miss | miss | miss | miss | miss | |
| 21 | 09/21 | 23:02 | 67 | 63 | 89 | 30.27 | ENE | 0 | 0.00 |
| 22 | miss | miss | miss | miss | miss | miss | miss | miss | |
| 23 | 09/21 | 23:00 | 67 | 63 | 89 | 30.27 | ENE | 0 | 0.00 |
| 24 | 09/21 | 22:59 | 67 | 63 | 89 | 30.27 | ENE | 0 | 0.00 |
| 25 | miss | miss | miss | miss | miss | miss | miss | miss | |
| 26 | 09/21 | 22:58 | 67 | 63 | 89 | 30.27 | ENE | 0 | 0.00 |
| 27 | 09/21 | 22:00 | 68 | 64 | 88 | 30.27 | ENE | 0 | 0.00 |
| 28 | 09/21 | 21:00 | 68 | 63 | 85 | 30.26 | NE | 2 | 0.00 |
| 29 | 09/21 | 20:00 | 69 | 63 | 83 | 30.25 | E | 2 | 0.00 |
| 30 | 09/21 | 19:00 | 71 | 63 | 76 | 30.24 | E | 1 | 0.00 |
| 31 | 09/21 | 18:00 | 72 | 62 | 73 | 30.24 | ESE | 2 | 0.00 |
| 32 | 09/21 | 17:00 | 73 | 62 | 69 | 30.24 | E | 2 | 0.00 |
| 33 | 09/21 | 16:00 | 73 | 61 | 68 | 30.25 | E | 4 | 0.00 |
| 34 | 09/21 | 15:00 | 73 | 59 | 63 | 30.26 | E | 2 | 0.00 |
| 35 | miss | miss | miss | miss | miss | miss | miss | miss | |
| 36 | 09/20 | 06:58 | 0 | -64 | 3 | 29.00 | S | 0 | 7.00 |
| 37 | miss | miss | miss | miss | miss | miss | miss | miss | |
| 38 | 09/20 | 06:58 | 0 | -64 | 3 | 29.00 | S | 0 | 7.00 |
| 39 | miss | miss | miss | miss | miss | miss | miss | miss | |
| 40 | 09/20 | 06:58 | 0 | -64 | 3 | 29.00 | S | 0 | 7.00 |
| 41 | miss | miss | miss | miss | miss | miss | miss | miss | |
| 42 | 09/20 | 06:58 | 0 | -64 | 3 | 29.00 | S | 0 | 7.00 |
| 43 | 09/20 | 06:00 | 62 | 62 | 100 | 30.13 | S | 0 | 0.00 |
| 44 | 09/20 | 05:00 | 63 | 63 | 100 | 30.12 | S | 0 | 0.00 |
| 45 | 09/20 | 04:00 | 63 | 63 | 100 | 30.11 | SE | 0 | 0.00 |
| 46 | 09/20 | 03:00 | 64 | 63 | 100 | 30.11 | SE | 0 | 0.00 |
| 47 | 09/20 | 02:00 | 65 | 64 | 100 | 30.10 | SE | 0 | 0.00 |
| 48 | 09/20 | 01:00 | 66 | 65 | 99 | 30.10 | SSW | 0 | 0.00 |
| 49 | 09/20 | 00:00 | 67 | 66 | 99 | 30.10 | S | 1 | 0.00 |
| 50 | 09/19 | 23:00 | 67 | 66 | 99 | 30.10 | S | 0 | 0.00 |
| 51 | 09/19 | 22:00 | 68 | 66 | 96 | 30.09 | S | 0 | 0.00 |
| 52 | 09/19 | 21:00 | 69 | 67 | 96 | 30.08 | SSW | 4 | 0.00 |
| 53 | 09/19 | 20:00 | 69 | 67 | 95 | 30.04 | SW | 5 | 0.00 |
| 54 | 09/19 | 19:00 | 69 | 66 | 93 | 30.02 | S | 4 | 0.00 |
| 55 | 09/19 | 18:00 | 72 | 67 | 87 | 29.99 | SSW | 5 | 0.00 |
| 56 | 09/19 | 17:00 | 72 | 67 | 85 | 29.96 | SSW | 8 | 0.00 |
| 57 | 09/19 | 16:00 | 75 | 67 | 78 | 29.93 | S | 8 | 0.00 |
| 58 | 09/19 | 15:00 | 75 | 66 | 76 | 29.91 | SE | 6 | 0.00 |
| 59 | 09/19 | 14:00 | 76 | 67 | 74 | 29.89 | SE | 10 | 0.00 |
| 60 | 09/19 | 13:00 | 77 | 66 | 71 | 29.87 | SE | 11 | 0.00 |
| 61 | 09/19 | 12:00 | 75 | 67 | 78 | 29.86 | SSE | 19 | 0.00 |
| 62 | 09/19 | 11:00 | 72 | 68 | 88 | 29.84 | SE | 5 | 0.00 |
| 63 | 09/19 | 10:00 | 70 | 69 | 98 | 29.82 | ESE | 7 | 0.05 |
| 64 | 09/19 | 09:00 | 72 | 68 | 90 | 29.78 | ESE | 8 | 0.00 |
| 65 | 09/19 | 08:00 | 69 | 68 | 99 | 29.78 | SSE | 13 | 0.07 |
| 66 | 09/19 | 07:00 | 70 | 67 | 91 | 29.76 | SE | 10 | 0.00 |
| 67 | 09/19 | 06:00 | 68 | 66 | 96 | 29.74 | ESE | 13 | 0.00 |
| 68 | 09/19 | 05:00 | 69 | 68 | 98 | 29.70 | SSE | 8 | 0.04 |
| 69 | 09/19 | 04:00 | 73 | 70 | 91 | 29.68 | SE | 12 | 0.02 |
| 70 | 09/19 | 03:00 | 73 | 72 | 97 | 29.68 | SE | 37 | 0.13 |
| 71 | 09/19 | 02:00 | 74 | 72 | 96 | 29.68 | ESE | 17 | 0.02 |
| 72 | 09/19 | 01:00 | 73 | 72 | 100 | 29.71 | NNW | 17 | 0.11 |
| 73 | 09/19 | 00:00 | 69 | 68 | 100 | 29.77 | NE | 7 | -0.44 |
| 74 | 09/18 | 23:00 | 65 | 64 | 100 | 29.81 | NE | 16 | 0.13 |
| 75 | 09/18 | 22:00 | 64 | 63 | 100 | 29.85 | ENE | 14 | 0.19 |
| 76 | 09/18 | 21:00 | 64 | 63 | 100 | 29.87 | NNE | 12 | 0.12 |
| 77 | 09/18 | 20:00 | 65 | 64 | 97 | 29.91 | NE | 19 | 0.03 |
| 78 | 09/18 | 19:00 | 65 | 63 | 94 | 29.94 | ENE | 20 | 0.00 |
| 79 | 09/18 | 18:00 | 65 | 63 | 96 | 30.00 | NE | 18 | 0.00 |
| 80 | 09/18 | 17:00 | 65 | 63 | 95 | 30.04 | SW | 21 | 0.02 |
| 81 | 09/18 | 16:00 | 66 | 62 | 89 | 30.07 | ENE | 8 | 0.00 |